Time;durP1;ratioP1;P1;durP2;ratioP2;P2;SDS_P1;SDS_P2;PMS_P1;PMS_P2;Temp;Humidity;BMP_temperature;BMP_pressure;BME280_temperature;BME280_humidity;BME280_pressure;Samples;Min_cycle;Max_cycle;Signal;HPM_P1;HPM_P2
2023/11/25 00:01:08;;;;;;;6.80;2.00;;;;;;;-147.86;100.00;48732.09;105667;1259;59557;-40
2023/11/25 00:03:36;;;;;;;7.10;2.70;;;;;;;-147.86;100.00;48714.45;105679;1253;71757;-43
2023/11/25 00:06:05;;;;;;;7.20;2.10;;;;;;;-147.86;100.00;48723.46;105655;1258;65134;-44
2023/11/25 00:08:32;;;;;;;7.60;2.40;;;;;;;-147.86;100.00;48711.70;105683;1254;71352;-42
2023/11/25 00:11:01;;;;;;;5.00;1.70;;;;;;;-147.86;100.00;48701.11;105631;1254;59667;-41
2023/11/25 00:13:29;;;;;;;4.80;2.20;;;;;;;-147.86;100.00;48706.21;105693;1258;59637;-44
2023/11/25 00:15:57;;;;;;;4.10;2.00;;;;;;;-147.86;100.00;48708.17;105651;1253;72946;-42
2023/11/25 00:18:25;;;;;;;3.80;2.20;;;;;;;-147.86;100.00;48700.33;105701;1258;63475;-42
2023/11/25 00:20:53;;;;;;;4.00;2.00;;;;;;;-147.86;100.00;48690.14;105649;1254;71686;-44
2023/11/25 00:23:21;;;;;;;5.10;1.80;;;;;;;-147.86;100.00;48699.15;105651;1254;59888;-45
2023/11/25 00:25:49;;;;;;;5.00;2.40;;;;;;;-147.86;100.00;48705.43;105660;1253;59770;-44
2023/11/25 00:28:16;;;;;;;6.10;2.30;;;;;;;-147.86;100.00;48695.62;105708;1253;71869;-41
2023/11/25 00:30:45;;;;;;;7.60;1.90;;;;;;;-147.86;100.00;48735.62;105692;1255;64017;-41
2023/11/25 00:33:13;;;;;;;6.00;2.20;;;;;;;-147.86;100.00;48712.48;105682;1257;71254;-45
2023/11/25 00:35:41;;;;;;;6.40;1.90;;;;;;;-147.86;100.00;48715.63;105654;1256;60624;-43
2023/11/25 00:38:08;;;;;;;7.40;2.00;;;;;;;-147.86;100.00;48734.84;105705;1258;60365;-46
2023/11/25 00:40:36;;;;;;;7.40;2.40;;;;;;;-147.86;100.00;48745.43;105648;1258;72857;-43
2023/11/25 00:43:04;;;;;;;5.60;2.50;;;;;;;-147.86;100.00;48759.54;105649;1255;64052;-42
2023/11/25 00:45:32;;;;;;;4.20;2.20;;;;;;;-147.86;100.00;48765.42;105632;1260;72687;-44
2023/11/25 00:47:59;;;;;;;4.70;2.10;;;;;;;-147.86;100.00;48785.81;105661;1258;60483;-44
2023/11/25 00:50:27;;;;;;;7.20;2.80;;;;;;;-147.86;100.00;48788.16;105669;1253;60474;-40
2023/11/25 00:52:55;;;;;;;7.80;2.40;;;;;;;-147.86;100.00;48787.77;105616;1254;73784;-41
2023/11/25 00:55:23;;;;;;;3.50;1.90;;;;;;;-147.86;100.00;48794.44;105675;1258;64031;-44
2023/11/25 00:57:51;;;;;;;5.20;2.60;;;;;;;-147.86;100.00;48815.61;105658;1259;72659;-46
2023/11/25 01:00:22;;;;;;;9.00;2.80;;;;;;;-147.86;100.00;48811.30;105649;1254;60461;-44
2023/11/25 01:02:50;;;;;;;6.60;2.20;;;;;;;-147.86;100.00;48828.16;105708;1258;60343;-43
2023/11/25 01:05:18;;;;;;;5.00;2.10;;;;;;;-147.86;100.00;48853.26;105624;1253;72582;-43
2023/11/25 01:07:46;;;;;;;8.50;2.70;;;;;;;-147.86;100.00;48855.61;105662;1253;64563;-42
2023/11/25 01:10:13;;;;;;;8.30;2.70;;;;;;;-147.86;100.00;48873.26;105647;1258;72447;-41
2023/11/25 01:12:41;;;;;;;4.90;2.50;;;;;;;-147.86;100.00;48890.91;105705;1258;60534;-44
2023/11/25 01:15:12;;;;;;;7.90;2.90;;;;;;;-147.86;100.00;48901.10;105688;1253;60329;-42
2023/11/25 01:17:40;;;;;;;7.20;3.30;;;;;;;-147.86;100.00;48914.82;105711;1258;72012;-43
2023/11/25 01:20:09;;;;;;;7.20;3.10;;;;;;;-147.86;100.00;48922.67;105698;1254;63944;-43
2023/11/25 01:22:38;;;;;;;4.10;2.60;;;;;;;-147.86;100.00;48943.06;105690;1258;72729;-43
2023/11/25 01:25:07;;;;;;;7.70;2.40;;;;;;;-147.86;100.00;48967.37;105666;1258;60480;-43
2023/11/25 01:27:36;;;;;;;8.00;2.70;;;;;;;-147.86;100.00;49007.76;105697;1254;60326;-41
2023/11/25 01:30:05;;;;;;;9.50;3.10;;;;;;;-147.86;100.00;49018.74;105712;1253;72646;-44
2023/11/25 01:32:33;;;;;;;9.60;2.70;;;;;;;-147.86;100.00;49039.14;105674;1253;65159;-45
2023/11/25 01:35:02;;;;;;;7.20;3.00;;;;;;;-147.86;100.00;49078.35;105695;1254;71411;-44
2023/11/25 01:37:30;;;;;;;5.90;2.30;;;;;;;-147.86;100.00;49098.75;105682;1256;60473;-43
2023/11/25 01:39:58;;;;;;;5.30;2.70;;;;;;;-147.86;100.00;49125.80;105671;1253;60410;-41
2023/11/25 01:42:25;;;;;;;13.30;3.00;;;;;;;-147.86;100.00;49126.98;105651;1255;73797;-44
2023/11/25 01:44:53;;;;;;;4.90;2.70;;;;;;;-147.86;100.00;49127.76;105665;1253;65316;-42
2023/11/25 01:47:21;;;;;;;3.70;2.80;;;;;;;-147.86;100.00;49152.86;105625;1260;71416;-43
2023/11/25 01:49:49;;;;;;;7.10;2.80;;;;;;;-147.86;100.00;49160.31;105654;1254;60516;-45
2023/11/25 01:52:17;;;;;;;4.20;2.20;;;;;;;-147.86;100.00;49168.94;105638;1253;60486;-46
2023/11/25 01:54:45;;;;;;;7.90;2.50;;;;;;;-147.86;100.00;49185.02;105686;1253;72559;-43
2023/11/25 01:57:13;;;;;;;6.50;2.30;;;;;;;-147.86;100.00;49202.67;105682;1254;63958;-43
2023/11/25 01:59:40;;;;;;;3.10;1.90;;;;;;;-147.86;100.00;49201.88;105662;1256;71385;-43
2023/11/25 02:02:10;;;;;;;5.40;2.70;;;;;;;-147.86;100.00;49232.87;105659;1256;60524;-43
2023/11/25 02:04:38;;;;;;;6.80;2.50;;;;;;;-147.86;100.00;49242.67;105662;1253;60828;-44
2023/11/25 02:07:06;;;;;;;13.20;2.80;;;;;;;-147.86;100.00;49227.38;105648;1255;73778;-44
2023/11/25 02:09:34;;;;;;;4.50;2.30;;;;;;;-147.86;100.00;49230.90;105647;1253;63942;-46
2023/11/25 02:12:02;;;;;;;8.80;1.90;;;;;;;-147.86;100.00;49231.30;105662;1256;72701;-45
2023/11/25 02:14:30;;;;;;;4.20;2.20;;;;;;;-147.86;100.00;49224.24;105696;1256;60541;-43
2023/11/25 02:16:57;;;;;;;7.60;2.60;;;;;;;-147.86;100.00;49198.36;105722;1253;60979;-44
2023/11/25 02:19:25;;;;;;;9.40;2.30;;;;;;;-147.86;100.00;49209.34;105715;1254;73733;-41
2023/11/25 02:21:55;;;;;;;11.00;2.40;;;;;;;-147.86;100.00;49186.59;105672;1255;64004;-43
2023/11/25 02:24:26;;;;;;;8.30;2.20;;;;;;;-147.86;100.00;49181.88;105675;1253;72642;-45
2023/11/25 02:27:01;;;;;;;4.70;2.20;;;;;;;-147.86;100.00;49177.57;105699;1254;60435;-42
2023/11/25 02:29:31;;;;;;;6.10;1.70;;;;;;;-147.86;100.00;49174.43;105728;1258;60464;-45
2023/11/25 02:31:59;;;;;;;7.70;2.70;;;;;;;-147.86;100.00;49172.07;105677;1253;74293;-44
2023/11/25 02:34:27;;;;;;;3.60;2.30;;;;;;;-147.86;100.00;49165.41;105653;1254;63926;-44
2023/11/25 02:36:58;;;;;;;6.10;2.20;;;;;;;-147.86;100.00;49187.37;105716;1259;71440;-43
2023/11/25 02:39:28;;;;;;;6.10;2.10;;;;;;;-147.86;100.00;49219.53;105685;1258;60538;-41
2023/11/25 02:41:56;;;;;;;9.70;2.20;;;;;;;-147.86;100.00;49252.08;105660;1258;60410;-45
2023/11/25 02:44:23;;;;;;;4.20;1.80;;;;;;;-147.86;100.00;49267.77;105684;1258;73149;-44
2023/11/25 02:46:51;;;;;;;8.90;1.90;;;;;;;-147.86;100.00;49267.77;105678;1254;63914;-46
2023/11/25 02:49:22;;;;;;;7.80;2.80;;;;;;;-147.86;100.00;49266.60;105694;1254;70829;-42
2023/11/25 02:51:51;;;;;;;9.90;2.20;;;;;;;-147.86;100.00;49255.61;105619;1258;60539;-45
2023/11/25 02:54:20;;;;;;;7.80;2.00;;;;;;;-147.86;100.00;49228.55;105690;1258;60517;-46
2023/11/25 02:56:49;;;;;;;4.00;2.00;;;;;;;-147.86;100.00;49198.74;105668;1253;72629;-42
2023/11/25 02:59:17;;;;;;;7.70;2.20;;;;;;;-147.86;100.00;49133.65;105717;1253;63866;-42
2023/11/25 03:01:49;;;;;;;7.80;2.30;;;;;;;-147.86;100.00;49094.43;105699;1255;71351;-42
2023/11/25 03:04:23;;;;;;;6.10;2.60;;;;;;;-147.86;100.00;49049.73;105658;1253;60509;-41
2023/11/25 03:06:51;;;;;;;10.40;2.20;;;;;;;-147.86;100.00;49019.92;105646;1253;60511;-45
2023/11/25 03:09:19;;;;;;;5.70;2.20;;;;;;;-147.86;100.00;48956.39;105712;1253;72533;-45
2023/11/25 03:11:47;;;;;;;9.20;2.30;;;;;;;-147.86;100.00;48934.82;105667;1253;63988;-44
2023/11/25 03:14:15;;;;;;;5.60;2.30;;;;;;;-147.86;100.00;48894.43;105694;1254;71458;-45
2023/11/25 03:16:45;;;;;;;7.60;2.70;;;;;;;-147.86;100.00;48847.38;105640;1256;60470;-42
2023/11/25 03:19:13;;;;;;;8.50;2.90;;;;;;;-147.86;100.00;48812.87;105689;1257;60335;-45
2023/11/25 03:21:44;;;;;;;5.70;2.00;;;;;;;-147.86;100.00;48766.21;105612;1253;72552;-44
2023/11/25 03:24:13;;;;;;;7.30;2.40;;;;;;;-147.86;100.00;48733.66;105675;1258;64030;-43
2023/11/25 03:26:43;;;;;;;6.30;2.30;;;;;;;-147.86;100.00;48713.66;105622;1254;71412;-44
2023/11/25 03:29:11;;;;;;;8.00;2.50;;;;;;;-147.86;100.00;48709.74;105737;1254;60546;-43
2023/11/25 03:31:42;;;;;;;7.50;2.40;;;;;;;-147.86;100.00;48698.37;105658;1253;60534;-42
2023/11/25 03:34:11;;;;;;;4.50;2.00;;;;;;;-147.86;100.00;48681.11;105707;1253;72643;-42
2023/11/25 03:36:40;;;;;;;5.00;2.30;;;;;;;-147.86;100.00;48674.45;105671;1253;63915;-41
2023/11/25 03:39:09;;;;;;;5.90;2.30;;;;;;;-147.86;100.00;48672.49;105704;1256;71465;-42
2023/11/25 03:41:37;;;;;;;8.10;2.70;;;;;;;-147.86;100.00;48656.41;105723;1253;60465;-43
2023/11/25 03:44:06;;;;;;;5.70;2.70;;;;;;;-147.86;100.00;48677.98;105713;1253;60595;-44
2023/11/25 03:46:34;;;;;;;8.70;2.70;;;;;;;-147.86;100.00;48686.60;105675;1253;72630;-41
2023/11/25 03:49:02;;;;;;;5.60;2.50;;;;;;;-147.86;100.00;48687.78;105661;1253;64075;-41
2023/11/25 03:51:30;;;;;;;5.40;2.50;;;;;;;-147.86;100.00;48706.21;105652;1254;71894;-44
2023/11/25 03:53:57;;;;;;;8.00;2.70;;;;;;;-147.86;100.00;48702.68;105658;1255;60533;-45
2023/11/25 03:56:25;;;;;;;12.70;3.40;;;;;;;-147.86;100.00;48736.40;105696;1253;60325;-43
2023/11/25 03:58:54;;;;;;;9.80;3.50;;;;;;;-147.86;100.00;48723.07;105670;1254;72627;-43
2023/11/25 04:01:21;;;;;;;6.30;2.50;;;;;;;-147.86;100.00;48723.46;105614;1259;63913;-46
2023/11/25 04:03:50;;;;;;;7.70;2.70;;;;;;;-147.86;100.00;48747.77;105614;1256;71706;-44
2023/11/25 04:06:18;;;;;;;11.60;3.00;;;;;;;-147.86;100.00;48746.21;105633;1255;60568;-42
2023/11/25 04:08:46;;;;;;;8.00;2.90;;;;;;;-147.86;100.00;48761.50;105651;1256;60378;-42
2023/11/25 04:11:14;;;;;;;7.40;2.50;;;;;;;-147.86;100.00;48779.15;105633;1258;71877;-43
2023/11/25 04:13:42;;;;;;;6.50;2.60;;;;;;;-147.86;100.00;48790.13;105656;1253;64083;-45
2023/11/25 04:16:10;;;;;;;8.70;2.80;;;;;;;-147.86;100.00;48813.65;105653;1253;72686;-44
2023/11/25 04:18:38;;;;;;;6.40;2.20;;;;;;;-147.86;100.00;48822.67;105670;1256;60470;-41
2023/11/25 04:21:06;;;;;;;8.50;5.50;;;;;;;-147.86;100.00;48839.93;105711;1254;61077;-45
2023/11/25 04:23:34;;;;;;;11.30;3.20;;;;;;;-147.86;100.00;48863.45;105673;1253;72559;-44
2023/11/25 04:26:03;;;;;;;13.50;3.00;;;;;;;-147.86;100.00;48874.43;105687;1253;64003;-44
2023/11/25 04:28:33;;;;;;;5.00;2.80;;;;;;;-147.86;100.00;48899.93;105670;1254;72641;-44
2023/11/25 04:31:02;;;;;;;7.30;3.00;;;;;;;-147.86;100.00;48919.14;105718;1255;60530;-45
2023/11/25 04:33:30;;;;;;;4.00;2.50;;;;;;;-147.86;100.00;48932.47;105674;1253;60470;-45
2023/11/25 04:35:59;;;;;;;5.10;2.70;;;;;;;-147.86;100.00;48937.96;105435;1258;73783;-44
2023/11/25 04:38:27;;;;;;;9.80;3.30;;;;;;;-147.86;100.00;48980.71;105341;1253;64119;-43
2023/11/25 04:40:54;;;;;;;6.60;2.90;;;;;;;-147.86;100.00;49000.31;105410;1256;71479;-47
2023/11/25 04:43:24;;;;;;;8.30;3.40;;;;;;;-147.86;100.00;49013.64;105648;1253;60485;-43
2023/11/25 04:45:52;;;;;;;10.40;3.70;;;;;;;-147.86;100.00;49023.84;105742;1257;60423;-43
2023/11/25 04:48:20;;;;;;;12.10;4.20;;;;;;;-147.86;100.00;49040.31;105712;1253;72614;-44
2023/11/25 04:50:48;;;;;;;9.20;3.90;;;;;;;-147.86;100.00;49087.37;105658;1258;64366;-47
2023/11/25 04:53:15;;;;;;;8.90;3.90;;;;;;;-147.86;100.00;49107.38;105648;1258;71456;-45
2023/11/25 04:55:43;;;;;;;11.60;3.40;;;;;;;-147.86;100.00;49129.33;105647;1256;60655;-42
2023/11/25 04:58:11;;;;;;;11.80;3.70;;;;;;;-147.86;100.00;49160.71;105708;1253;60492;-44
2023/11/25 05:00:39;;;;;;;11.40;3.70;;;;;;;-147.86;100.00;49183.06;105703;1253;73609;-43
2023/11/25 05:03:07;;;;;;;8.70;3.60;;;;;;;-147.86;100.00;49230.91;105643;1253;63923;-46
2023/11/25 05:05:34;;;;;;;7.80;3.30;;;;;;;-147.86;100.00;49265.81;105660;1253;73132;-44
2023/11/25 05:08:04;;;;;;;9.80;3.70;;;;;;;-147.86;100.00;49305.81;105630;1253;60509;-42
2023/11/25 05:10:32;;;;;;;9.60;3.40;;;;;;;-147.86;100.00;49298.36;105663;1259;60435;-45
2023/11/25 05:13:01;;;;;;;8.60;3.20;;;;;;;-147.86;100.00;49327.38;105699;1253;73803;-40
2023/11/25 05:15:29;;;;;;;8.30;3.20;;;;;;;-147.86;100.00;49329.73;105690;1258;64008;-45
2023/11/25 05:17:56;;;;;;;8.40;3.50;;;;;;;-147.86;100.00;49325.81;105698;1253;70743;-40
2023/11/25 05:20:24;;;;;;;8.80;3.30;;;;;;;-147.86;100.00;49345.42;105666;1259;60538;-44
2023/11/25 05:22:51;;;;;;;7.90;3.50;;;;;;;-147.86;100.00;49348.17;105642;1254;62135;-44
2023/11/25 05:25:19;;;;;;;14.30;3.30;;;;;;;-147.86;100.00;49362.29;105624;1253;72562;-47
2023/11/25 05:27:47;;;;;;;8.90;3.30;;;;;;;-147.86;100.00;49387.39;105668;1258;64017;-44
2023/11/25 05:30:15;;;;;;;7.00;3.60;;;;;;;-147.86;100.00;49388.96;105742;1253;72654;-43
2023/11/25 05:32:43;;;;;;;13.40;3.70;;;;;;;-147.86;100.00;49413.27;105672;1253;60977;-43
2023/11/25 05:35:12;;;;;;;9.20;3.30;;;;;;;-147.86;100.00;49439.55;105755;1258;60367;-42
2023/11/25 05:37:43;;;;;;;8.30;3.20;;;;;;;-147.86;100.00;49477.59;105714;1253;72657;-42
2023/11/25 05:40:13;;;;;;;13.30;3.70;;;;;;;-147.86;100.00;49500.73;105657;1258;63937;-44
2023/11/25 05:42:47;;;;;;;8.30;3.60;;;;;;;-147.86;100.00;49534.46;105730;1255;71479;-43
2023/11/25 05:45:17;;;;;;;8.20;4.10;;;;;;;-147.86;100.00;49559.56;105678;1255;60486;-44
2023/11/25 05:47:47;;;;;;;6.50;3.80;;;;;;;-147.86;100.00;49573.29;105779;1257;60365;-41
2023/11/25 05:50:19;;;;;;;6.90;3.50;;;;;;;-147.86;100.00;49601.92;105633;1258;73844;-42
2023/11/25 05:52:49;;;;;;;13.40;5.80;;;;;;;-147.86;100.00;49619.18;105672;1255;64079;-43
2023/11/25 05:55:19;;;;;;;13.50;5.90;;;;;;;-147.86;100.00;49659.57;105670;1258;72687;-42
2023/11/25 05:57:50;;;;;;;12.50;5.20;;;;;;;-147.86;100.00;49663.11;105738;1253;60488;-44
2023/11/25 06:00:21;;;;;;;21.10;12.60;;;;;;;-147.86;100.00;49674.48;105694;1258;60423;-44
2023/11/25 06:02:49;;;;;;;9.20;4.30;;;;;;;-147.86;100.00;49699.58;105666;1254;73848;-40
2023/11/25 06:05:17;;;;;;;11.90;5.40;;;;;;;-147.86;100.00;49730.96;105683;1253;65176;-43
2023/11/25 06:07:45;;;;;;;14.00;6.20;;;;;;;-147.86;100.00;49730.18;105690;1254;71448;-41
2023/11/25 06:10:14;;;;;;;13.30;5.50;;;;;;;-147.86;100.00;49761.95;105706;1255;60536;-43
2023/11/25 06:12:42;;;;;;;11.40;5.60;;;;;;;-147.86;100.00;49794.89;105701;1258;60502;-44
2023/11/25 06:15:10;;;;;;;9.10;4.60;;;;;;;-147.86;100.00;49810.58;105657;1258;72912;-42
2023/11/25 06:17:37;;;;;;;5.90;4.20;;;;;;;-147.86;100.00;49846.67;105640;1258;64044;-46
2023/11/25 06:20:06;;;;;;;10.40;3.70;;;;;;;-147.86;100.00;49865.49;105631;1255;71428;-41
2023/11/25 06:22:34;;;;;;;10.20;4.30;;;;;;;-147.86;100.00;49912.96;105660;1254;60477;-42
2023/11/25 06:25:04;;;;;;;6.50;3.70;;;;;;;-147.86;100.00;49940.02;105681;1258;60449;-43
2023/11/25 06:27:32;;;;;;;8.40;4.30;;;;;;;-147.86;100.00;49952.96;105667;1253;72547;-43
2023/11/25 06:29:59;;;;;;;16.00;4.50;;;;;;;-147.86;100.00;49959.63;105654;1254;63446;-45
2023/11/25 06:32:28;;;;;;;10.50;4.40;;;;;;;-147.86;100.00;50020.04;105639;1258;72604;-43
2023/11/25 06:34:58;;;;;;;12.90;4.50;;;;;;;-147.86;100.00;50051.03;105642;1258;60652;-41
2023/11/25 06:37:26;;;;;;;13.00;4.80;;;;;;;-147.86;100.00;50101.24;105665;1258;60435;-43
2023/11/25 06:39:53;;;;;;;9.60;5.00;;;;;;;-147.86;100.00;50121.24;105650;1253;72542;-40
2023/11/25 06:42:22;;;;;;;12.30;5.60;;;;;;;-147.86;100.00;50174.20;105749;1253;64651;-41
2023/11/25 06:44:51;;;;;;;13.10;5.40;;;;;;;-147.86;100.00;50191.46;105677;1256;70777;-41
2023/11/25 06:47:19;;;;;;;12.40;5.40;;;;;;;-147.86;100.00;50245.59;105671;1254;60501;-45
2023/11/25 06:49:50;;;;;;;10.80;4.70;;;;;;;-147.86;100.00;50255.79;105613;1258;60361;-43
2023/11/25 06:52:18;;;;;;;8.30;4.80;;;;;;;-147.86;100.00;50288.35;105753;1258;72596;-43
2023/11/25 06:54:46;;;;;;;9.10;4.50;;;;;;;-147.86;100.00;50312.67;105647;1253;63959;-42
2023/11/25 06:57:15;;;;;;;8.20;5.50;;;;;;;-147.86;100.00;50333.07;105666;1253;72105;-44
2023/11/25 06:59:45;;;;;;;11.40;5.00;;;;;;;-147.86;100.00;50342.09;105620;1258;60540;-45
2023/11/25 07:02:13;;;;;;;11.60;5.40;;;;;;;-147.86;100.00;50351.12;105695;1258;60346;-44
2023/11/25 07:04:41;;;;;;;12.00;5.00;;;;;;;-147.86;100.00;50369.16;105698;1253;72576;-45
2023/11/25 07:07:09;;;;;;;12.00;5.70;;;;;;;-147.86;100.00;50400.94;105643;1258;65182;-41
2023/11/25 07:09:37;;;;;;;13.30;5.10;;;;;;;-147.86;100.00;50412.70;105652;1258;72176;-42
2023/11/25 07:12:10;;;;;;;13.70;5.70;;;;;;;-147.86;100.00;50431.54;105722;1256;60486;-44
2023/11/25 07:14:37;;;;;;;14.70;6.80;;;;;;;-147.86;100.00;50455.86;105658;1253;60445;-46
2023/11/25 07:17:05;;;;;;;18.50;7.50;;;;;;;-147.86;100.00;50471.95;105623;1258;73850;-43
2023/11/25 07:19:33;;;;;;;16.70;7.40;;;;;;;-147.86;100.00;50487.24;105683;1253;63963;-44
2023/11/25 07:23:43;;;;;;;15.40;7.70;;;;;;;-147.86;100.00;50205.64;102752;1292;600464;-42
2023/11/25 07:26:14;;;;;;;15.00;7.40;;;;;;;-147.86;100.00;50544.91;104916;1269;59209;-42
2023/11/25 07:28:42;;;;;;;14.70;7.70;;;;;;;-147.86;100.00;50557.46;105088;1268;59280;-42
2023/11/25 07:31:11;;;;;;;17.60;7.60;;;;;;;-147.86;100.00;50550.40;105090;1265;70984;-46
2023/11/25 07:33:38;;;;;;;13.90;6.60;;;;;;;-147.86;100.00;50546.09;104978;1266;64047;-45
2023/11/25 07:36:07;;;;;;;21.20;7.60;;;;;;;-147.86;100.00;50555.50;104885;1268;73073;-41
2023/11/25 07:38:35;;;;;;;15.60;7.50;;;;;;;-147.86;100.00;50563.74;105022;1263;250447;-44
2023/11/25 07:41:03;;;;;;;16.90;6.50;;;;;;;-147.86;100.00;50585.31;105188;1263;60187;-47
2023/11/25 07:43:31;;;;;;;19.90;7.50;;;;;;;-147.86;100.00;50558.25;105158;1267;72248;-45
2023/11/25 07:45:59;;;;;;;16.30;7.20;;;;;;;-147.86;100.00;50545.70;105241;1263;63908;-46
2023/11/25 07:48:27;;;;;;;15.40;6.80;;;;;;;-147.86;100.00;50540.59;105198;1263;71353;-41
2023/11/25 07:50:54;;;;;;;14.80;6.80;;;;;;;-147.86;100.00;50479.00;105177;1264;59744;-43
2023/11/25 07:53:23;;;;;;;12.60;6.50;;;;;;;-147.86;100.00;50466.84;105180;1267;59515;-45
2023/11/25 07:55:51;;;;;;;10.50;5.90;;;;;;;-147.86;100.00;50425.26;105279;1260;73139;-45
2023/11/25 07:58:19;;;;;;;15.30;6.00;;;;;;;-147.86;100.00;50374.65;105646;1254;64017;-44
2023/11/25 08:00:47;;;;;;;13.00;6.50;;;;;;;-147.86;100.00;50326.01;105604;1254;72638;-43
2023/11/25 08:03:15;;;;;;;12.20;6.10;;;;;;;-147.86;100.00;50289.14;105643;1254;59825;-42
2023/11/25 08:05:44;;;;;;;16.20;5.60;;;;;;;-147.86;100.00;50250.30;105672;1259;59663;-44
2023/11/25 08:08:12;;;;;;;12.50;5.50;;;;;;;-147.86;100.00;50152.63;105680;1259;70824;-47
2023/11/25 08:10:41;;;;;;;14.00;5.80;;;;;;;-147.86;100.00;50096.14;105625;1254;64467;-44
2023/11/25 08:13:10;;;;;;;12.50;5.00;;;;;;;-147.86;100.00;50033.38;105618;1256;71403;-43
2023/11/25 08:15:38;;;;;;;13.70;5.60;;;;;;;-147.86;100.00;49954.14;105749;1257;59696;-45
2023/11/25 08:18:05;;;;;;;14.30;5.70;;;;;;;-147.86;100.00;49898.84;105644;1259;59625;-44
2023/11/25 08:20:33;;;;;;;8.80;4.60;;;;;;;-147.86;100.00;49837.64;105553;1256;71759;-46
2023/11/25 08:23:04;;;;;;;11.80;5.20;;;;;;;-147.86;100.00;49774.88;105620;1259;64000;-42
2023/11/25 08:25:32;;;;;;;12.30;4.70;;;;;;;-147.86;100.00;49685.86;105569;1257;71679;-43
2023/11/25 08:27:59;;;;;;;12.50;4.70;;;;;;;-147.86;100.00;49588.59;105604;1257;59713;-46
2023/11/25 08:30:27;;;;;;;10.20;4.40;;;;;;;-147.86;100.00;49470.53;105586;1260;59532;-44
2023/11/25 08:32:56;;;;;;;13.00;5.10;;;;;;;-147.86;100.00;49382.29;105617;1256;71764;-44
2023/11/25 08:35:24;;;;;;;12.00;4.90;;;;;;;-147.86;100.00;49273.65;105595;1257;63903;-46
2023/11/25 08:37:52;;;;;;;10.40;5.20;;;;;;;-147.86;100.00;49223.45;105553;1257;72732;-45
2023/11/25 08:40:21;;;;;;;10.60;4.70;;;;;;;-147.86;100.00;49168.94;105564;1261;60820;-45
2023/11/25 08:42:49;;;;;;;11.70;4.40;;;;;;;-147.86;100.00;49087.37;105602;1260;59728;-43
2023/11/25 08:45:19;;;;;;;8.00;4.40;;;;;;;-147.86;100.00;49004.63;105585;1256;71777;-43
2023/11/25 08:47:47;;;;;;;13.30;4.60;;;;;;;-147.86;100.00;48917.18;105591;1256;64006;-46
2023/11/25 08:50:15;;;;;;;11.10;4.90;;;;;;;-147.86;100.00;48861.49;105567;1261;72625;-44
2023/11/25 08:52:45;;;;;;;19.10;5.00;;;;;;;-147.86;100.00;48785.81;105605;1256;59730;-43
2023/11/25 08:55:17;;;;;;;12.60;4.90;;;;;;;-147.86;100.00;48756.01;105638;1260;59624;-43
2023/11/25 08:57:47;;;;;;;9.80;4.50;;;;;;;-147.86;100.00;48721.11;105591;1257;71762;-43
2023/11/25 09:00:21;;;;;;;10.40;5.00;;;;;;;-147.86;100.00;48702.29;105577;1256;64062;-46
2023/11/25 09:02:54;;;;;;;13.80;4.90;;;;;;;-147.86;100.00;48663.47;105566;1257;71404;-46
2023/11/25 09:05:22;;;;;;;14.80;5.80;;;;;;;-147.86;100.00;48638.38;105581;1257;60272;-44
2023/11/25 09:07:59;;;;;;;17.20;6.30;;;;;;;-147.86;100.00;48620.34;105578;1262;59965;-43
2023/11/25 09:10:27;;;;;;;20.20;6.20;;;;;;;-147.86;100.00;48602.70;105556;1257;72998;-43
2023/11/25 09:12:54;;;;;;;17.20;8.10;;;;;;;-147.86;100.00;48562.70;105560;1260;65189;-46
2023/11/25 09:15:22;;;;;;;14.00;7.90;;;;;;;-147.86;100.00;48546.23;105550;1260;71655;-44
2023/11/25 09:17:50;;;;;;;19.10;8.60;;;;;;;-147.86;100.00;48532.11;105569;1258;59747;-45
2023/11/25 09:20:21;;;;;;;19.60;8.50;;;;;;;-147.86;100.00;48516.82;105636;1259;59510;-43
2023/11/25 09:22:51;;;;;;;15.70;8.50;;;;;;;-147.86;100.00;48527.02;105587;1256;71751;-43
2023/11/25 09:25:19;;;;;;;18.60;7.70;;;;;;;-147.86;100.00;48496.04;105562;1258;65271;-47
2023/11/25 09:27:51;;;;;;;17.90;7.70;;;;;;;-147.86;100.00;48473.30;105546;1256;72638;-43
2023/11/25 09:30:19;;;;;;;13.80;6.30;;;;;;;-147.86;100.00;48461.54;105620;1256;60847;-46
2023/11/25 09:32:46;;;;;;;12.00;6.70;;;;;;;-147.86;100.00;48460.75;105613;1260;59625;-47
2023/11/25 09:35:14;;;;;;;11.50;5.30;;;;;;;-147.86;100.00;48461.53;105564;1257;73048;-45
2023/11/25 09:37:43;;;;;;;17.00;5.30;;;;;;;-147.86;100.00;48443.89;105538;1256;63926;-45
2023/11/25 09:40:14;;;;;;;10.50;5.60;;;;;;;-147.86;100.00;48439.18;105581;1259;71490;-42
2023/11/25 09:42:43;;;;;;;8.70;5.10;;;;;;;-147.86;100.00;48421.54;105592;1260;59623;-45
2023/11/25 09:45:11;;;;;;;11.80;5.30;;;;;;;-147.86;100.00;48406.64;105616;1256;60007;-44
2023/11/25 09:47:40;;;;;;;15.70;5.40;;;;;;;-147.86;100.00;48420.76;105599;1256;71597;-43
2023/11/25 09:50:12;;;;;;;12.10;4.20;;;;;;;-147.86;100.00;48401.93;105572;1260;65197;-45
2023/11/25 09:52:51;;;;;;;16.90;5.60;;;;;;;-147.86;100.00;48374.88;105390;1259;71383;-46
2023/11/25 09:55:25;;;;;;;12.30;5.70;;;;;;;-147.86;100.00;48395.27;105385;1261;59705;-48
2023/11/25 09:58:02;;;;;;;16.70;6.60;;;;;;;-147.86;100.00;48378.02;105524;1262;59686;-45
2023/11/25 10:00:32;;;;;;;13.60;6.10;;;;;;;-147.86;100.00;48376.84;105327;1260;73091;-45
2023/11/25 10:03:01;;;;;;;11.30;6.40;;;;;;;-147.86;100.00;48392.91;105307;1256;65168;-43
2023/11/25 10:05:29;;;;;;;15.00;5.90;;;;;;;-147.86;100.00;48377.63;105520;1256;72618;-44
2023/11/25 10:08:00;;;;;;;13.00;5.30;;;;;;;-147.86;100.00;48376.45;105362;1256;59761;-43
2023/11/25 10:10:30;;;;;;;13.70;6.70;;;;;;;-147.86;100.00;48376.05;105457;1256;59992;-43
2023/11/25 10:13:00;;;;;;;13.50;6.80;;;;;;;-147.86;100.00;48371.35;105649;1257;71950;-47
2023/11/25 10:15:28;;;;;;;21.40;7.80;;;;;;;-147.86;100.00;48377.63;105595;1256;65014;-42
2023/11/25 10:17:55;;;;;;;26.10;11.50;;;;;;;-147.86;100.00;48376.05;105564;1261;72734;-48
2023/11/25 10:20:24;;;;;;;19.70;8.20;;;;;;;-147.86;100.00;48383.51;105543;1257;59814;-46
2023/11/25 10:22:58;;;;;;;18.80;7.40;;;;;;;-147.86;100.00;48395.66;105593;1256;59839;-46
2023/11/25 10:25:27;;;;;;;16.30;7.90;;;;;;;-147.86;100.00;48368.61;105619;1256;71833;-45
2023/11/25 10:27:56;;;;;;;18.00;8.70;;;;;;;-147.86;100.00;48375.66;105576;1261;65181;-46
2023/11/25 10:30:24;;;;;;;19.50;6.60;;;;;;;-147.86;100.00;48385.07;105587;1260;71393;-44
2023/11/25 10:32:56;;;;;;;12.80;6.80;;;;;;;-147.86;100.00;48390.96;105548;1260;59727;-45
2023/11/25 10:35:24;;;;;;;10.30;5.80;;;;;;;-147.86;100.00;48390.96;105433;1262;59600;-43
2023/11/25 10:37:52;;;;;;;16.60;6.70;;;;;;;-147.86;100.00;48398.40;105624;1256;71848;-42
2023/11/25 10:40:21;;;;;;;14.60;6.60;;;;;;;-147.86;100.00;48367.82;105544;1262;63954;-44
2023/11/25 10:42:50;;;;;;;19.90;7.00;;;;;;;-147.86;100.00;48384.29;105588;1259;71555;-45
2023/11/25 10:45:18;;;;;;;14.20;7.00;;;;;;;-147.86;100.00;48381.15;105572;1257;59627;-42
2023/11/25 10:47:47;;;;;;;18.70;7.60;;;;;;;-147.86;100.00;48404.68;105646;1261;59619;-42
2023/11/25 10:50:14;;;;;;;11.70;6.70;;;;;;;-147.86;100.00;48379.98;105575;1256;72084;-43
2023/11/25 10:52:44;;;;;;;16.50;6.50;;;;;;;-147.86;100.00;48388.21;105638;1256;64025;-45
2023/11/25 10:55:12;;;;;;;16.00;7.10;;;;;;;-147.86;100.00;48376.45;105566;1256;71389;-42
2023/11/25 10:57:41;;;;;;;18.90;7.30;;;;;;;-147.86;100.00;48397.63;105564;1257;59818;-45
2023/11/25 11:00:12;;;;;;;16.10;7.20;;;;;;;-147.86;100.00;48384.29;105631;1262;59664;-45
2023/11/25 11:02:47;;;;;;;18.60;6.70;;;;;;;-147.86;100.00;48388.60;105545;1256;73039;-45
2023/11/25 11:05:24;;;;;;;19.40;6.90;;;;;;;-147.86;100.00;48382.72;105547;1262;63933;-47